createdAt,value
2023-02-18T00:00:18.178Z,3.20
2023-02-18T00:02:23.133Z,4.25
2023-02-18T00:04:28.135Z,3.15
2023-02-18T00:06:34.975Z,4.68
2023-02-18T00:08:39.710Z,5.68
2023-02-18T00:10:47.205Z,3.28
2023-02-18T00:12:52.030Z,4.20
2023-02-18T00:14:59.917Z,4.07
2023-02-18T00:17:04.737Z,3.42
2023-02-18T00:19:13.251Z,4.25
2023-02-18T00:21:18.497Z,3.83
2023-02-18T00:23:23.310Z,4.13
2023-02-18T00:25:28.776Z,3.75
2023-02-18T00:27:36.699Z,5.22
2023-02-18T00:29:41.635Z,3.78
2023-02-18T00:31:46.616Z,3.65
2023-02-18T00:33:51.568Z,3.60
2023-02-18T00:36:03.711Z,4.22
2023-02-18T00:38:08.470Z,3.97
2023-02-18T00:40:14.049Z,3.90
2023-02-18T00:42:18.802Z,3.97
2023-02-18T00:44:26.285Z,4.10
2023-02-18T00:46:31.476Z,3.88
2023-02-18T00:48:39.617Z,3.60
2023-02-18T00:50:44.443Z,3.92
2023-02-18T00:52:49.269Z,4.38
2023-02-18T00:54:54.256Z,3.90
2023-02-18T00:56:59.069Z,3.60
2023-02-18T00:59:04.268Z,3.72
2023-02-18T01:01:13.233Z,4.28
2023-02-18T01:03:18.922Z,3.70
2023-02-18T01:05:24.282Z,3.03
2023-02-18T01:07:29.224Z,3.88
2023-02-18T01:09:34.089Z,4.70
2023-02-18T01:11:38.911Z,6.20
2023-02-18T01:13:44.385Z,6.30
2023-02-18T01:15:49.211Z,4.50
2023-02-18T01:17:56.619Z,3.88
2023-02-18T01:20:01.610Z,3.97
2023-02-18T01:22:06.876Z,4.22
2023-02-18T01:24:13.077Z,4.30
2023-02-18T01:26:17.981Z,4.80
2023-02-18T01:28:25.347Z,3.63
2023-02-18T01:30:30.219Z,3.55
2023-02-18T01:32:35.410Z,4.53
2023-02-18T01:34:42.834Z,3.55
2023-02-18T01:36:47.612Z,4.35
2023-02-18T01:38:55.476Z,4.63
2023-02-18T01:41:01.148Z,4.18
2023-02-18T01:43:06.980Z,3.40
2023-02-18T01:47:31.440Z,3.85
2023-02-18T01:49:40.524Z,3.50
2023-02-18T01:51:51.440Z,3.55
2023-02-18T01:53:59.477Z,3.28
2023-02-18T01:56:09.506Z,3.35
2023-02-18T01:58:16.183Z,4.50
2023-02-18T02:00:23.339Z,3.50
2023-02-18T02:02:30.894Z,3.25
2023-02-18T02:04:36.395Z,2.67
2023-02-18T02:06:41.286Z,3.80
2023-02-18T02:08:52.109Z,2.70
2023-02-18T02:11:15.820Z,2.60
2023-02-18T02:13:30.183Z,3.13
2023-02-18T02:15:40.902Z,3.05
2023-02-18T02:18:03.993Z,2.63
2023-02-18T02:20:45.095Z,3.22
2023-02-18T02:23:30.958Z,3.72
2023-02-18T02:25:59.443Z,2.92
2023-02-18T02:28:28.608Z,4.32
2023-02-18T02:30:55.196Z,3.58
2023-02-18T02:33:23.190Z,3.65
2023-02-18T02:35:34.099Z,2.80
2023-02-18T02:37:45.357Z,2.90
2023-02-18T02:39:59.962Z,3.67
2023-02-18T02:42:16.837Z,3.53
2023-02-18T02:44:24.708Z,2.90
2023-02-18T02:46:34.847Z,2.85
2023-02-18T02:48:47.102Z,2.78
2023-02-18T02:51:07.084Z,2.45
2023-02-18T02:53:20.351Z,2.20
2023-02-18T02:55:25.317Z,2.25
2023-02-18T02:57:55.376Z,2.53
2023-02-18T03:00:11.219Z,2.38
2023-02-18T03:02:29.024Z,2.30
2023-02-18T03:04:55.563Z,3.03
2023-02-18T03:07:17.260Z,1.73
2023-02-18T03:09:30.179Z,2.33
2023-02-18T03:11:45.656Z,2.30
2023-02-18T03:14:07.996Z,2.33
2023-02-18T03:16:26.858Z,3.00
2023-02-18T03:20:46.188Z,2.60
2023-02-18T03:22:55.739Z,2.75
2023-02-18T03:25:02.791Z,2.05
2023-02-18T03:27:12.691Z,1.60
2023-02-18T03:29:21.091Z,2.15
2023-02-18T03:31:31.732Z,1.60
2023-02-18T03:33:41.135Z,1.67
2023-02-18T03:35:50.078Z,1.85
2023-02-18T03:38:04.202Z,1.42
2023-02-18T03:40:12.494Z,1.50
2023-02-18T03:42:19.481Z,1.85
2023-02-18T03:44:24.493Z,3.47
2023-02-18T03:46:30.192Z,2.05
2023-02-18T03:48:37.094Z,1.58
2023-02-18T03:50:39.439Z,1.33
2023-02-18T03:52:44.321Z,1.60
2023-02-18T03:54:51.786Z,1.35
2023-02-18T03:56:56.649Z,1.90
2023-02-18T03:59:01.446Z,1.67
2023-02-18T04:01:07.306Z,1.60
2023-02-18T04:03:12.113Z,2.38
2023-02-18T04:05:16.973Z,1.55
2023-02-18T04:07:21.803Z,1.58
2023-02-18T04:09:26.788Z,1.50
2023-02-18T04:11:34.182Z,1.90
2023-02-18T04:13:39.041Z,1.75
2023-02-18T04:15:43.961Z,2.63
2023-02-18T04:17:48.953Z,2.50
2023-02-18T04:19:53.824Z,2.00
2023-02-18T04:21:58.673Z,1.73
2023-02-18T04:24:03.991Z,2.63
2023-02-18T04:28:17.425Z,1.85
2023-02-18T04:30:22.744Z,2.50
2023-02-18T04:32:27.675Z,2.10
2023-02-18T04:34:32.584Z,2.33
2023-02-18T04:36:37.520Z,3.72
2023-02-18T04:38:43.243Z,2.55
2023-02-18T04:40:48.174Z,3.65
2023-02-18T04:42:52.994Z,2.90
2023-02-18T04:45:01.166Z,2.85
2023-02-18T04:47:06.834Z,2.47
2023-02-18T04:49:11.681Z,3.70
2023-02-18T04:51:16.589Z,4.28
2023-02-18T04:53:21.419Z,2.85
2023-02-18T04:55:26.387Z,5.18
2023-02-18T04:57:31.133Z,3.75
2023-02-18T04:59:36.088Z,4.72
2023-02-18T05:01:43.518Z,5.55
2023-02-18T05:03:48.759Z,4.43
2023-02-18T05:10:04.536Z,2.97
2023-02-18T05:12:10.401Z,3.83
2023-02-18T05:14:15.205Z,3.40
2023-02-18T05:16:20.003Z,3.33
2023-02-18T05:18:27.425Z,5.80
2023-02-18T05:20:32.551Z,3.20
2023-02-18T05:24:42.251Z,3.63
2023-02-18T05:26:47.138Z,3.65
2023-02-18T05:28:52.025Z,5.53
2023-02-18T05:30:56.906Z,3.85
2023-02-18T05:33:01.744Z,3.40
2023-02-18T05:35:10.547Z,3.50
2023-02-18T05:37:15.383Z,3.70
2023-02-18T05:39:20.236Z,3.85
2023-02-18T05:41:25.251Z,4.45
2023-02-18T05:43:30.053Z,6.60
2023-02-18T05:45:32.426Z,4.43
2023-02-18T05:47:37.343Z,3.50
2023-02-18T05:49:43.936Z,3.92
2023-02-18T05:51:51.334Z,5.00
2023-02-18T05:53:56.524Z,3.30
2023-02-18T05:58:05.938Z,4.40
2023-02-18T06:00:12.208Z,3.13
2023-02-18T06:02:17.080Z,4.63
2023-02-18T06:04:21.872Z,3.60
2023-02-18T06:06:27.006Z,3.20
2023-02-18T06:08:34.483Z,3.58
2023-02-18T06:10:39.375Z,3.63
2023-02-18T06:12:44.198Z,3.60
2023-02-18T06:14:49.704Z,3.55
2023-02-18T06:16:56.222Z,3.58
2023-02-18T06:19:01.227Z,4.03
2023-02-18T06:21:06.987Z,3.40
2023-02-18T06:23:11.857Z,3.30
2023-02-18T06:25:19.251Z,4.40
2023-02-18T06:27:24.220Z,3.97
2023-02-18T06:29:30.329Z,4.10
2023-02-18T06:31:35.492Z,4.07
2023-02-18T06:33:40.420Z,4.45
2023-02-18T06:35:45.732Z,4.43
2023-02-18T06:37:50.555Z,4.43
2023-02-18T06:39:55.361Z,4.22
2023-02-18T06:42:02.805Z,4.80
2023-02-18T06:44:08.044Z,4.85
2023-02-18T06:46:13.016Z,6.10
2023-02-18T06:48:17.939Z,5.65
2023-02-18T06:50:22.946Z,5.75
2023-02-18T06:52:27.925Z,5.28
2023-02-18T06:54:32.909Z,6.32
2023-02-18T06:56:37.843Z,6.35
2023-02-18T06:58:45.446Z,6.55
2023-02-18T07:00:50.388Z,6.00
2023-02-18T07:02:55.318Z,6.72
2023-02-18T07:05:00.171Z,7.45
2023-02-18T07:07:04.970Z,7.18
2023-02-18T07:09:10.076Z,6.38
2023-02-18T07:11:14.864Z,6.90
2023-02-18T07:13:19.751Z,7.38
2023-02-18T07:15:28.096Z,8.88
2023-02-18T07:17:33.328Z,9.18
2023-02-18T07:19:38.191Z,7.00
2023-02-18T07:21:43.018Z,7.10
2023-02-18T07:23:47.849Z,7.35
2023-02-18T07:25:52.802Z,7.43
2023-02-18T07:28:00.386Z,7.82
2023-02-18T07:30:05.216Z,8.35
2023-02-18T07:32:14.744Z,10.10
2023-02-18T07:34:19.951Z,7.47
2023-02-18T07:36:24.821Z,8.43
2023-02-18T07:38:31.283Z,10.70
2023-02-18T07:40:36.109Z,7.55
2023-02-18T07:42:40.956Z,8.80
2023-02-18T07:44:46.402Z,9.45
2023-02-18T07:46:51.367Z,8.20
2023-02-18T07:48:59.582Z,8.32
2023-02-18T07:51:04.459Z,7.85
2023-02-18T07:53:10.032Z,7.68
2023-02-18T07:55:14.926Z,8.27
2023-02-18T07:57:19.730Z,8.93
2023-02-18T07:59:24.879Z,8.60
2023-02-18T08:01:29.707Z,7.43
2023-02-18T08:03:36.250Z,8.35
2023-02-18T08:05:43.783Z,8.20
2023-02-18T08:07:48.733Z,8.77
2023-02-18T08:09:53.698Z,8.88
2023-02-18T08:11:58.766Z,6.90
2023-02-18T08:14:03.539Z,6.70
2023-02-18T08:16:09.755Z,6.90
2023-02-18T08:18:19.164Z,8.32
2023-02-18T08:20:24.344Z,9.95
2023-02-18T08:22:31.806Z,14.77
2023-02-18T08:24:36.693Z,12.00
2023-02-18T08:26:58.066Z,7.75
2023-02-18T08:29:04.788Z,7.50
2023-02-18T08:35:20.908Z,7.07
2023-02-18T08:37:31.428Z,6.50
2023-02-18T08:39:56.222Z,7.30
2023-02-18T08:42:01.307Z,6.97
2023-02-18T08:44:06.354Z,8.40
2023-02-18T08:46:15.847Z,7.25
2023-02-18T08:48:21.261Z,6.38
2023-02-18T08:50:26.798Z,5.75
2023-02-18T08:52:34.235Z,9.93
2023-02-18T08:54:39.069Z,7.97
2023-02-18T08:56:44.675Z,7.80
2023-02-18T08:58:49.443Z,5.80
2023-02-18T09:00:57.395Z,7.15
2023-02-18T09:03:02.220Z,5.70
2023-02-18T09:05:07.488Z,5.20
2023-02-18T09:07:12.376Z,5.03
2023-02-18T09:09:20.053Z,5.60
2023-02-18T09:11:24.858Z,7.03
2023-02-18T09:13:30.861Z,6.28
2023-02-18T09:15:35.626Z,5.47
2023-02-18T09:17:40.541Z,5.38
2023-02-18T09:19:45.436Z,4.93
2023-02-18T09:21:51.853Z,4.32
2023-02-18T09:23:56.939Z,5.05
2023-02-18T09:26:08.094Z,4.90
2023-02-18T09:28:13.003Z,5.40
2023-02-18T09:30:18.170Z,5.30
2023-02-18T09:32:34.236Z,5.53
2023-02-18T09:34:40.050Z,4.15
2023-02-18T09:38:49.984Z,5.60
2023-02-18T09:40:58.334Z,4.55
2023-02-18T09:43:06.147Z,5.43
2023-02-18T09:45:16.646Z,4.70
2023-02-18T09:47:28.994Z,5.57
2023-02-18T09:49:36.854Z,5.65
2023-02-18T09:51:41.684Z,4.88
2023-02-18T09:53:47.705Z,5.15
2023-02-18T09:55:57.962Z,6.30
2023-02-18T09:58:08.162Z,4.78
2023-02-18T10:00:17.412Z,5.20
2023-02-18T10:02:22.531Z,5.65
2023-02-18T10:04:32.292Z,3.50
2023-02-18T10:06:38.139Z,7.30
2023-02-18T10:08:47.274Z,5.18
2023-02-18T10:10:52.313Z,5.03
2023-02-18T10:12:58.261Z,5.18
2023-02-18T10:15:05.704Z,7.45
2023-02-18T10:17:11.317Z,3.58
2023-02-18T10:19:24.781Z,4.75
2023-02-18T10:21:33.085Z,5.35
2023-02-18T10:23:42.046Z,4.88
2023-02-18T10:25:49.357Z,5.43
2023-02-18T10:27:56.743Z,5.25
2023-02-18T10:30:21.277Z,4.63
2023-02-18T10:32:27.904Z,4.15
2023-02-18T10:34:44.212Z,5.80
2023-02-18T10:36:52.588Z,5.18
2023-02-18T10:39:32.917Z,4.53
2023-02-18T10:41:45.066Z,7.22
2023-02-18T10:43:58.931Z,4.57
2023-02-18T10:46:15.453Z,4.22
2023-02-18T10:48:35.906Z,6.47
2023-02-18T10:50:42.846Z,6.65
2023-02-18T10:52:52.133Z,3.58
2023-02-18T10:55:04.485Z,5.90
2023-02-18T10:57:18.362Z,4.30
2023-02-18T10:59:25.486Z,5.53
2023-02-18T11:01:34.100Z,5.05
2023-02-18T11:03:45.316Z,6.43
2023-02-18T11:05:52.919Z,4.10
2023-02-18T11:08:02.722Z,3.70
2023-02-18T11:10:18.278Z,5.97
2023-02-18T11:14:41.342Z,7.22
2023-02-18T11:16:55.999Z,5.88
2023-02-18T11:19:04.342Z,6.80
2023-02-18T11:21:22.990Z,4.70
2023-02-18T11:23:27.768Z,5.78
2023-02-18T11:25:37.106Z,4.45
2023-02-18T11:27:46.618Z,6.78
2023-02-18T11:29:54.986Z,5.82
2023-02-18T11:32:04.212Z,5.25
2023-02-18T11:34:13.544Z,5.80
2023-02-18T11:36:24.852Z,3.70
2023-02-18T11:38:33.399Z,4.47
2023-02-18T11:40:39.387Z,4.82
2023-02-18T11:42:44.241Z,4.78
2023-02-18T11:44:55.652Z,3.85
2023-02-18T11:47:06.127Z,3.88
2023-02-18T11:49:24.436Z,4.28
2023-02-18T11:51:36.730Z,3.75
2023-02-18T11:53:41.858Z,6.00
2023-02-18T11:58:03.379Z,6.53
2023-02-18T12:00:19.015Z,5.88
2023-02-18T12:02:36.200Z,4.43
2023-02-18T12:04:46.412Z,3.88
2023-02-18T12:06:57.858Z,5.30
2023-02-18T12:09:09.209Z,4.75
2023-02-18T12:11:25.872Z,7.53
2023-02-18T12:13:35.319Z,5.05
2023-02-18T12:15:53.986Z,3.40
2023-02-18T12:18:16.528Z,4.18
2023-02-18T12:20:38.789Z,4.93
2023-02-18T12:22:46.279Z,4.72
2023-02-18T12:25:07.059Z,6.22
2023-02-18T12:27:20.239Z,7.43
2023-02-18T12:29:40.861Z,6.47
2023-02-18T12:32:07.391Z,4.25
2023-02-18T12:34:29.086Z,5.68
2023-02-18T12:36:51.279Z,7.55
2023-02-18T12:39:11.579Z,4.55
2023-02-18T12:41:42.578Z,4.00
2023-02-18T12:43:58.974Z,5.68
2023-02-18T12:46:24.185Z,3.60
2023-02-18T12:48:54.242Z,4.18
2023-02-18T12:51:12.607Z,5.65
2023-02-18T12:53:39.971Z,3.65
2023-02-18T12:56:00.853Z,3.25
2023-02-18T12:58:16.281Z,4.43
2023-02-18T13:00:49.066Z,3.75
2023-02-18T13:03:25.779Z,4.72
2023-02-18T13:05:36.823Z,3.75
2023-02-18T13:08:01.549Z,4.65
2023-02-18T13:10:24.898Z,4.85
2023-02-18T13:12:38.039Z,3.20
2023-02-18T13:14:49.270Z,15.05
2023-02-18T13:16:57.752Z,2.90
2023-02-18T13:19:10.463Z,6.68
2023-02-18T13:21:16.835Z,3.03
2023-02-18T13:23:26.510Z,5.85
2023-02-18T13:25:32.226Z,3.30
2023-02-18T13:27:43.835Z,5.50
2023-02-18T13:29:55.135Z,3.75
2023-02-18T13:32:11.944Z,5.50
2023-02-18T13:34:24.448Z,3.08
2023-02-18T13:36:42.062Z,4.05
2023-02-18T13:39:05.626Z,5.50
2023-02-18T13:41:11.375Z,3.58
2023-02-18T13:43:32.023Z,4.85
2023-02-18T13:45:37.018Z,4.65
2023-02-18T13:47:44.243Z,4.90
2023-02-18T13:49:49.089Z,6.32
2023-02-18T13:51:56.240Z,6.75
2023-02-18T13:54:09.517Z,3.92
2023-02-18T13:56:24.344Z,4.65
2023-02-18T13:58:34.546Z,3.97
2023-02-18T14:00:43.230Z,3.03
2023-02-18T14:02:59.996Z,4.45
2023-02-18T14:05:24.464Z,3.70
2023-02-18T14:07:41.659Z,3.20
2023-02-18T14:09:49.407Z,3.97
2023-02-18T14:12:00.893Z,2.78
2023-02-18T14:14:47.308Z,4.70
2023-02-18T14:17:16.874Z,6.38
2023-02-18T14:19:31.391Z,5.20
2023-02-18T14:21:42.240Z,4.28
2023-02-18T14:23:58.948Z,5.13
2023-02-18T14:26:13.136Z,6.28
2023-02-18T14:28:44.949Z,7.43
2023-02-18T14:30:50.350Z,4.95
2023-02-18T14:33:00.280Z,4.68
2023-02-18T14:35:29.658Z,4.10
2023-02-18T14:38:04.276Z,4.38
2023-02-18T14:40:24.279Z,3.22
2023-02-18T14:42:42.420Z,4.97
2023-02-18T14:45:12.411Z,5.05
2023-02-18T14:47:38.824Z,5.28
2023-02-18T14:49:47.628Z,7.00
2023-02-18T14:51:55.154Z,5.55
2023-02-18T14:54:05.369Z,4.80
2023-02-18T14:56:13.844Z,5.20
2023-02-18T14:58:36.440Z,5.18
2023-02-18T15:00:44.319Z,5.85
2023-02-18T15:02:52.120Z,5.22
2023-02-18T15:04:57.669Z,6.97
2023-02-18T15:07:05.040Z,5.95
2023-02-18T15:09:17.828Z,5.15
2023-02-18T15:11:24.371Z,7.03
2023-02-18T15:13:35.020Z,6.18
2023-02-18T15:15:39.897Z,6.45
2023-02-18T15:17:50.611Z,5.43
2023-02-18T15:20:01.526Z,6.50
2023-02-18T15:22:06.410Z,6.82
2023-02-18T15:24:18.979Z,6.03
2023-02-18T15:26:24.824Z,6.18
2023-02-18T15:28:34.435Z,5.55
2023-02-18T15:30:41.041Z,5.82
2023-02-18T15:32:49.019Z,4.80
2023-02-18T15:34:56.396Z,6.18
2023-02-18T15:37:03.668Z,6.97
2023-02-18T15:39:08.486Z,6.07
2023-02-18T15:41:17.046Z,6.25
2023-02-18T15:43:25.223Z,5.82
2023-02-18T15:45:38.004Z,5.95
2023-02-18T15:47:47.005Z,6.07
2023-02-18T15:49:55.626Z,9.02
2023-02-18T15:52:03.489Z,6.90
2023-02-18T15:54:08.523Z,6.55
2023-02-18T15:56:18.894Z,4.82
2023-02-18T15:58:26.710Z,4.82
2023-02-18T16:00:38.143Z,4.50
2023-02-18T16:02:55.598Z,5.82
2023-02-18T16:05:05.245Z,4.47
2023-02-18T16:07:24.470Z,4.78
2023-02-18T16:09:32.643Z,5.18
2023-02-18T16:11:40.882Z,5.18
2023-02-18T16:13:49.603Z,5.88
2023-02-18T16:16:00.773Z,5.70
2023-02-18T16:18:07.138Z,5.63
2023-02-18T16:20:28.059Z,7.28
2023-02-18T16:22:38.083Z,6.13
2023-02-18T16:24:44.270Z,5.70
2023-02-18T16:26:49.552Z,5.68
2023-02-18T16:28:55.930Z,5.45
2023-02-18T16:31:03.494Z,4.22
2023-02-18T16:33:08.317Z,5.72
2023-02-18T16:35:14.148Z,4.88
2023-02-18T16:37:31.408Z,6.30
2023-02-18T16:39:37.967Z,6.40
2023-02-18T16:41:44.837Z,8.30
2023-02-18T16:43:50.536Z,9.10
2023-02-18T16:45:57.655Z,6.50
2023-02-18T16:48:05.375Z,5.53
2023-02-18T16:50:19.838Z,4.85
2023-02-18T16:52:24.624Z,5.28
2023-02-18T16:54:30.491Z,5.10
2023-02-18T16:56:37.060Z,5.22
2023-02-18T16:58:41.875Z,5.88
2023-02-18T17:00:48.053Z,5.43
2023-02-18T17:02:56.384Z,5.88
2023-02-18T17:05:06.263Z,7.00
2023-02-18T17:07:14.917Z,6.00
2023-02-18T17:11:28.725Z,6.40
2023-02-18T17:13:34.206Z,6.90
2023-02-18T17:15:39.074Z,5.15
2023-02-18T17:17:44.201Z,5.85
2023-02-18T17:19:49.038Z,5.57
2023-02-18T17:21:56.412Z,6.65
2023-02-18T17:24:02.178Z,7.38
2023-02-18T17:26:13.209Z,7.03
2023-02-18T17:28:19.464Z,8.13
2023-02-18T17:30:24.514Z,6.70
2023-02-18T17:32:29.448Z,7.30
2023-02-18T17:34:36.271Z,6.68
2023-02-18T17:36:45.427Z,5.57
2023-02-18T17:38:52.867Z,5.80
2023-02-18T17:40:59.064Z,7.20
2023-02-18T17:43:03.890Z,6.97
2023-02-18T17:45:19.574Z,8.20
2023-02-18T17:49:29.003Z,8.38
2023-02-18T17:51:34.987Z,8.60
2023-02-18T17:53:39.781Z,6.72
2023-02-18T17:55:48.721Z,9.48
2023-02-18T17:58:11.490Z,6.70
2023-02-18T18:00:19.751Z,9.18
2023-02-18T18:02:30.467Z,7.43
2023-02-18T18:04:35.427Z,6.80
2023-02-18T18:06:40.290Z,7.68
2023-02-18T18:08:45.254Z,8.88
2023-02-18T18:10:55.769Z,9.05
2023-02-18T18:13:01.149Z,7.32
2023-02-18T18:15:19.324Z,6.72
2023-02-18T18:17:24.167Z,7.82
2023-02-18T18:19:30.376Z,8.45
2023-02-18T18:21:37.355Z,7.15
2023-02-18T18:23:42.159Z,7.85
2023-02-18T18:25:48.600Z,6.70
2023-02-18T18:27:56.579Z,6.35
2023-02-18T18:30:01.920Z,6.20
2023-02-18T18:34:12.817Z,9.70
2023-02-18T18:36:19.652Z,7.30
2023-02-18T18:38:26.373Z,6.50
2023-02-18T18:40:32.996Z,7.53
2023-02-18T18:42:37.801Z,7.53
2023-02-18T18:44:45.296Z,9.13
2023-02-18T18:46:50.183Z,8.43
2023-02-18T18:48:57.107Z,6.57
2023-02-18T18:51:02.563Z,6.07
2023-02-18T18:53:07.667Z,7.40
2023-02-18T18:57:28.458Z,5.57
2023-02-18T19:01:40.567Z,8.07
2023-02-18T19:03:45.899Z,6.18
2023-02-18T19:05:51.837Z,10.40
2023-02-18T19:07:59.771Z,6.32
2023-02-18T19:10:04.556Z,7.45
2023-02-18T19:12:09.555Z,14.65
2023-02-18T19:14:15.990Z,7.32
2023-02-18T19:16:22.814Z,7.40
2023-02-18T19:18:32.538Z,7.00
2023-02-18T19:20:39.526Z,11.38
2023-02-18T19:22:45.397Z,8.60
2023-02-18T19:24:50.375Z,7.43
2023-02-18T19:26:55.161Z,8.73
2023-02-18T19:28:59.991Z,7.22
2023-02-18T19:31:05.103Z,8.82
2023-02-18T19:33:10.152Z,6.43
2023-02-18T19:35:17.764Z,6.60
2023-02-18T19:37:23.433Z,5.90
2023-02-18T19:39:28.284Z,7.47
2023-02-18T19:41:33.031Z,5.90
2023-02-18T19:43:38.526Z,8.30
2023-02-18T19:45:45.095Z,7.57
2023-02-18T19:47:50.086Z,6.03
2023-02-18T19:49:56.023Z,7.60
2023-02-18T19:52:04.500Z,5.45
2023-02-18T19:54:09.637Z,6.78
2023-02-18T19:56:14.596Z,5.85
2023-02-18T19:58:19.378Z,6.90
2023-02-18T20:00:25.250Z,5.00
2023-02-18T20:02:31.463Z,7.05
2023-02-18T20:04:36.878Z,6.10
2023-02-18T20:06:41.693Z,7.70
2023-02-18T20:08:49.710Z,7.40
2023-02-18T20:10:59.620Z,7.00
2023-02-18T20:13:05.908Z,6.35
2023-02-18T20:15:11.488Z,5.95
2023-02-18T20:17:16.290Z,6.60
2023-02-18T20:19:21.089Z,7.20
2023-02-18T20:21:26.885Z,8.05
2023-02-18T20:23:31.652Z,6.13
2023-02-18T20:25:41.486Z,6.45
2023-02-18T20:27:59.731Z,7.40
2023-02-18T20:30:06.191Z,5.28
2023-02-18T20:32:11.852Z,8.65
2023-02-18T20:34:16.778Z,8.38
2023-02-18T20:36:21.996Z,6.53
2023-02-18T20:40:31.479Z,7.57
2023-02-18T20:42:38.971Z,7.60
2023-02-18T20:44:43.732Z,6.72
2023-02-18T20:46:48.986Z,9.02
2023-02-18T20:51:01.626Z,7.13
2023-02-18T20:53:06.402Z,6.97
2023-02-18T20:55:11.455Z,5.80
2023-02-18T20:59:24.261Z,5.90
2023-02-18T21:01:29.159Z,6.03
2023-02-18T21:03:34.623Z,6.82
2023-02-18T21:05:39.638Z,6.03
2023-02-18T21:07:44.638Z,6.13
2023-02-18T21:09:49.580Z,7.60
2023-02-18T21:11:56.012Z,6.65
2023-02-18T21:14:01.601Z,6.47
2023-02-18T21:16:10.526Z,8.75
2023-02-18T21:18:15.816Z,6.97
2023-02-18T21:22:25.233Z,7.30
2023-02-18T21:24:32.071Z,8.82
2023-02-18T21:26:38.939Z,6.75
2023-02-18T21:28:43.945Z,6.07
2023-02-18T21:30:49.208Z,7.05
2023-02-18T21:35:04.691Z,6.25
2023-02-18T21:37:09.526Z,6.93
2023-02-18T21:39:14.638Z,8.68
2023-02-18T21:41:19.433Z,6.65
2023-02-18T21:43:24.338Z,7.35
2023-02-18T21:45:32.753Z,7.57
2023-02-18T21:47:39.524Z,6.93
2023-02-18T21:49:47.488Z,6.90
2023-02-18T21:52:08.654Z,7.40
2023-02-18T21:54:13.617Z,7.32
2023-02-18T21:56:18.608Z,8.45
2023-02-18T21:58:23.450Z,7.10
2023-02-18T22:00:28.278Z,6.28
2023-02-18T22:02:35.687Z,7.43
2023-02-18T22:04:40.852Z,5.63
2023-02-18T22:06:48.663Z,6.38
2023-02-18T22:08:56.078Z,5.97
2023-02-18T22:11:00.874Z,7.20
2023-02-18T22:13:05.761Z,6.90
2023-02-18T22:15:11.721Z,8.63
2023-02-18T22:17:17.420Z,8.13
2023-02-18T22:19:22.384Z,7.18
2023-02-18T22:21:27.490Z,6.55
2023-02-18T22:23:36.490Z,7.30
2023-02-18T22:25:41.242Z,7.60
2023-02-18T22:27:46.734Z,7.18
2023-02-18T22:29:51.494Z,7.10
2023-02-18T22:31:56.342Z,7.38
2023-02-18T22:34:02.973Z,6.25
2023-02-18T22:36:10.072Z,5.35
2023-02-18T22:38:14.843Z,7.45
2023-02-18T22:40:22.351Z,5.72
2023-02-18T22:42:27.289Z,8.25
2023-02-18T22:44:32.230Z,5.93
2023-02-18T22:46:38.828Z,9.52
2023-02-18T22:48:43.834Z,6.70
2023-02-18T22:50:48.635Z,6.80
2023-02-18T22:52:55.917Z,6.03
2023-02-18T22:55:00.743Z,8.07
2023-02-18T22:57:08.112Z,6.45
2023-02-18T22:59:13.931Z,5.97
2023-02-18T23:01:23.743Z,6.90
2023-02-18T23:03:29.349Z,6.45
2023-02-18T23:05:36.967Z,6.38
2023-02-18T23:07:41.742Z,5.70
2023-02-18T23:09:46.580Z,7.30
2023-02-18T23:11:55.695Z,5.68
2023-02-18T23:14:15.610Z,6.45
2023-02-18T23:16:22.648Z,7.32
2023-02-18T23:18:27.536Z,7.10
2023-02-18T23:20:44.882Z,9.48
2023-02-18T23:22:49.641Z,7.70
2023-02-18T23:24:55.671Z,6.47
2023-02-18T23:27:00.449Z,7.03
2023-02-18T23:29:08.257Z,8.18
2023-02-18T23:31:13.666Z,7.78
2023-02-18T23:33:18.892Z,5.85
2023-02-18T23:35:23.718Z,5.95
2023-02-18T23:37:42.749Z,7.35
2023-02-18T23:39:48.444Z,7.20
2023-02-18T23:41:54.046Z,6.32
2023-02-18T23:43:59.567Z,6.65
2023-02-18T23:46:07.283Z,6.97
2023-02-18T23:48:12.097Z,8.77
2023-02-18T23:50:17.991Z,7.85
2023-02-18T23:52:22.809Z,6.22
2023-02-18T23:54:28.250Z,5.88
2023-02-18T23:56:33.162Z,5.93
2023-02-18T23:58:38.618Z,8.02
